createdAt,value
2018-05-10T00:00:14.645Z,40.53
2018-05-10T00:04:07.867Z,39.63
2018-05-10T00:08:01.011Z,40.90
2018-05-10T00:11:54.933Z,38.17
2018-05-10T00:15:48.061Z,37.63
2018-05-10T00:19:42.672Z,44.67
2018-05-10T00:23:35.865Z,41.97
2018-05-10T00:27:28.997Z,44.33
2018-05-10T00:31:22.269Z,44.10
2018-05-10T00:35:15.409Z,42.23
2018-05-10T00:39:09.376Z,44.77
2018-05-10T00:43:02.489Z,46.95
2018-05-10T00:46:55.644Z,48.03
2018-05-10T00:50:48.789Z,49.40
2018-05-10T00:54:52.715Z,50.97
2018-05-10T00:58:45.642Z,46.73
2018-05-10T01:02:38.765Z,43.47
2018-05-10T01:06:31.884Z,47.63
2018-05-10T01:10:25.046Z,50.67
2018-05-10T01:14:18.177Z,43.57
2018-05-10T01:18:11.322Z,42.70
2018-05-10T01:22:04.484Z,46.37
2018-05-10T01:25:57.606Z,47.65
2018-05-10T01:29:50.968Z,44.23
2018-05-10T01:33:44.173Z,46.20
2018-05-10T01:37:37.286Z,42.27
2018-05-10T01:41:30.413Z,40.30
2018-05-10T01:45:34.406Z,43.43
2018-05-10T01:49:28.619Z,43.27
2018-05-10T01:53:22.560Z,37.60
2018-05-10T01:57:15.679Z,39.27
2018-05-10T02:01:08.647Z,41.63
2018-05-10T02:05:01.792Z,42.30
2018-05-10T02:08:54.916Z,36.83
2018-05-10T02:12:48.869Z,37.23
2018-05-10T02:16:41.999Z,37.50
2018-05-10T02:20:35.119Z,36.40
2018-05-10T02:24:28.899Z,35.90
2018-05-10T02:28:22.004Z,32.87
2018-05-10T02:32:15.164Z,38.83
2018-05-10T02:36:08.330Z,32.63
2018-05-10T02:40:01.478Z,30.95
2018-05-10T02:43:55.553Z,33.28
2018-05-10T02:47:48.696Z,33.53
2018-05-10T02:51:41.895Z,29.63
2018-05-10T02:55:35.943Z,24.87
2018-05-10T02:59:28.848Z,25.33
2018-05-10T03:03:23.069Z,26.97
2018-05-10T03:07:16.541Z,21.17
2018-05-10T03:11:09.687Z,22.60
2018-05-10T03:15:02.855Z,22.90
2018-05-10T03:18:56.137Z,22.20
2018-05-10T03:22:49.227Z,18.50
2018-05-10T03:26:42.502Z,17.90
2018-05-10T03:30:35.682Z,19.00
2018-05-10T03:34:28.823Z,19.47
2018-05-10T03:38:22.043Z,24.90
2018-05-10T03:42:16.013Z,18.15
2018-05-10T03:46:10.380Z,19.60
2018-05-10T03:50:03.716Z,17.62
2018-05-10T03:53:57.800Z,17.40
2018-05-10T03:57:50.360Z,16.10
2018-05-10T04:01:43.216Z,18.10
2018-05-10T04:05:48.327Z,20.60
2018-05-10T04:09:53.483Z,17.20
2018-05-10T04:13:46.630Z,20.20
2018-05-10T04:17:39.817Z,18.30
2018-05-10T04:21:33.228Z,20.07
2018-05-10T04:25:26.428Z,21.33
2018-05-10T04:29:19.687Z,21.13
2018-05-10T04:33:13.595Z,20.50
2018-05-10T04:37:06.712Z,27.87
2018-05-10T04:40:59.845Z,26.60
2018-05-10T04:44:52.976Z,24.93
2018-05-10T04:48:46.187Z,27.67
2018-05-10T04:52:39.303Z,23.03
2018-05-10T04:56:32.642Z,25.83
2018-05-10T05:00:25.545Z,27.97
2018-05-10T05:04:18.663Z,21.97
2018-05-10T05:08:11.881Z,25.57
2018-05-10T05:12:05.167Z,26.60
2018-05-10T05:15:58.253Z,22.27
2018-05-10T05:19:51.340Z,21.10
2018-05-10T05:23:45.367Z,23.63
2018-05-10T05:27:38.502Z,25.40
2018-05-10T05:31:32.465Z,26.33
2018-05-10T05:35:25.639Z,24.60
2018-05-10T05:39:19.578Z,23.93
2018-05-10T05:43:12.824Z,27.23
2018-05-10T05:47:05.860Z,29.13
2018-05-10T05:50:59.457Z,27.73
2018-05-10T05:54:52.598Z,29.67
2018-05-10T05:58:45.097Z,23.80
2018-05-10T06:02:38.249Z,24.40
2018-05-10T06:06:31.461Z,22.63
2018-05-10T06:10:24.597Z,27.40
2018-05-10T06:14:17.737Z,22.57
2018-05-10T06:18:10.896Z,22.90
2018-05-10T06:22:04.031Z,19.90
2018-05-10T06:25:57.908Z,18.53
2018-05-10T06:29:51.084Z,20.37
2018-05-10T06:33:45.026Z,17.67
2018-05-10T06:37:38.267Z,17.20
2018-05-10T06:41:31.487Z,20.20
2018-05-10T06:45:24.608Z,20.90
2018-05-10T06:49:17.775Z,19.90
2018-05-10T06:53:10.905Z,16.00
2018-05-10T06:57:04.083Z,21.97
2018-05-10T07:00:58.081Z,14.70
2018-05-10T07:04:51.414Z,14.83
2018-05-10T07:08:45.295Z,16.47
2018-05-10T07:12:38.491Z,12.57
2018-05-10T07:16:32.379Z,14.33
2018-05-10T07:20:25.520Z,14.00
2018-05-10T07:24:18.635Z,13.32
2018-05-10T07:28:11.798Z,15.33
2018-05-10T07:32:04.906Z,11.50
2018-05-10T07:35:58.178Z,12.93
2018-05-10T07:39:51.447Z,9.60
2018-05-10T07:43:44.580Z,13.33
2018-05-10T07:47:37.734Z,13.07
2018-05-10T07:51:31.017Z,10.40
2018-05-10T07:55:24.505Z,10.67
2018-05-10T07:59:18.443Z,13.27
2018-05-10T08:03:11.575Z,12.50
2018-05-10T08:07:04.680Z,15.60
2018-05-10T08:10:57.877Z,15.50
2018-05-10T08:14:51.126Z,10.77
2018-05-10T08:18:46.291Z,11.20
2018-05-10T08:22:39.370Z,10.37
2018-05-10T08:26:32.508Z,10.70
2018-05-10T08:30:25.629Z,9.80
2018-05-10T08:34:21.216Z,8.65
2018-05-10T08:38:15.151Z,12.83
2018-05-10T08:42:09.062Z,12.93
2018-05-10T08:46:02.195Z,13.30
2018-05-10T08:49:56.081Z,12.87
2018-05-10T08:53:49.992Z,12.30
2018-05-10T08:57:43.128Z,12.27
2018-05-10T09:01:36.039Z,14.23
2018-05-10T09:05:29.211Z,11.83
2018-05-10T09:09:22.342Z,16.47
2018-05-10T09:13:15.468Z,12.25
2018-05-10T09:17:09.515Z,11.80
2018-05-10T09:21:02.747Z,11.90
2018-05-10T09:24:55.912Z,11.35
2018-05-10T09:28:49.178Z,10.27
2018-05-10T09:32:43.103Z,4.47
2018-05-10T09:36:36.208Z,5.40
2018-05-10T09:40:30.098Z,5.37
2018-05-10T09:44:23.268Z,4.22
2018-05-10T09:48:19.967Z,3.78
2018-05-10T09:52:13.961Z,3.97
2018-05-10T09:56:07.216Z,6.63
2018-05-10T10:00:00.965Z,4.30
2018-05-10T10:03:59.745Z,6.03
2018-05-10T10:07:52.898Z,8.57
2018-05-10T10:11:46.091Z,5.27
2018-05-10T10:15:39.352Z,7.37
2018-05-10T10:19:33.934Z,3.17
2018-05-10T10:23:27.261Z,4.68
2018-05-10T10:27:20.511Z,6.05
2018-05-10T10:31:13.866Z,3.77
2018-05-10T10:35:07.479Z,3.33
2018-05-10T10:39:01.728Z,5.93
2018-05-10T10:42:54.832Z,2.87
2018-05-10T10:46:48.094Z,7.93
2018-05-10T10:50:41.264Z,13.87
2018-05-10T10:54:34.467Z,10.37
2018-05-10T10:58:29.264Z,12.18
2018-05-10T11:02:22.141Z,10.23
2018-05-10T11:06:24.925Z,8.70
2018-05-10T11:10:18.241Z,9.53
2018-05-10T11:14:11.388Z,10.43
2018-05-10T11:18:05.471Z,9.87
2018-05-10T11:21:58.993Z,10.30
2018-05-10T11:25:56.074Z,12.87
2018-05-10T11:29:50.059Z,12.83
2018-05-10T11:33:44.392Z,13.87
2018-05-10T11:37:37.617Z,17.30
2018-05-10T11:41:30.791Z,19.25
2018-05-10T11:45:23.973Z,18.73
2018-05-10T11:49:18.122Z,17.30
2018-05-10T11:53:12.288Z,17.67
2018-05-10T11:57:05.424Z,21.10
2018-05-10T12:00:58.544Z,19.90
2018-05-10T12:04:52.453Z,21.60
2018-05-10T12:08:45.778Z,19.77
2018-05-10T12:12:39.677Z,25.63
2018-05-10T12:16:33.541Z,30.87
2018-05-10T12:20:27.445Z,25.23
2018-05-10T12:24:21.400Z,24.73
2018-05-10T12:28:14.555Z,24.50
2018-05-10T12:32:07.695Z,24.23
2018-05-10T12:36:01.704Z,26.07
2018-05-10T12:39:54.950Z,33.20
2018-05-10T12:43:48.216Z,28.93
2018-05-10T12:47:41.322Z,32.83
2018-05-10T12:51:35.218Z,29.47
2018-05-10T12:55:29.131Z,25.53
2018-05-10T12:59:22.252Z,25.23
2018-05-10T13:03:15.660Z,27.33
2018-05-10T13:07:10.385Z,28.17
2018-05-10T13:11:03.524Z,26.97
2018-05-10T13:14:56.644Z,28.33
2018-05-10T13:18:50.590Z,26.97
2018-05-10T13:22:43.723Z,28.87
2018-05-10T13:26:36.944Z,32.57
2018-05-10T13:30:30.081Z,29.10
2018-05-10T13:34:23.229Z,26.30
2018-05-10T13:38:16.430Z,23.37
2018-05-10T13:42:09.589Z,29.60
2018-05-10T13:46:02.726Z,26.77
2018-05-10T13:49:55.894Z,33.67
2018-05-10T13:53:49.041Z,26.27
2018-05-10T13:57:42.243Z,30.10
2018-05-10T14:01:38.442Z,32.70
2018-05-10T14:05:32.316Z,33.90
2018-05-10T14:09:26.297Z,27.80
2018-05-10T14:13:20.214Z,23.87
2018-05-10T14:17:13.368Z,29.33
2018-05-10T14:21:07.315Z,35.37
2018-05-10T14:25:01.267Z,30.43
2018-05-10T14:28:54.675Z,33.13
2018-05-10T14:32:48.061Z,32.33
2018-05-10T14:36:41.171Z,31.83
2018-05-10T14:40:34.292Z,25.50
2018-05-10T14:44:27.573Z,26.90
2018-05-10T14:48:20.719Z,29.43
2018-05-10T14:52:14.000Z,24.47
2018-05-10T14:56:07.175Z,27.90
2018-05-10T15:00:00.359Z,26.33
2018-05-10T15:03:53.547Z,17.43
2018-05-10T15:07:46.690Z,19.27
2018-05-10T15:11:39.824Z,16.15
2018-05-10T15:15:33.056Z,15.37
2018-05-10T15:19:27.864Z,16.63
2018-05-10T15:23:20.978Z,11.53
2018-05-10T15:27:14.095Z,15.23
2018-05-10T15:31:07.296Z,14.30
2018-05-10T15:35:00.555Z,11.93
2018-05-10T15:38:53.670Z,9.20
2018-05-10T15:42:46.818Z,8.37
2018-05-10T15:46:40.121Z,9.50
2018-05-10T15:50:33.299Z,7.83
2018-05-10T15:54:27.177Z,10.07
2018-05-10T15:58:21.112Z,8.93
2018-05-10T16:02:14.229Z,9.33
2018-05-10T16:06:07.386Z,9.20
2018-05-10T16:10:01.396Z,7.27
2018-05-10T16:13:55.048Z,9.03
2018-05-10T16:17:48.182Z,6.33
2018-05-10T16:21:41.376Z,6.35
2018-05-10T16:25:37.268Z,11.33
2018-05-10T16:29:31.209Z,6.73
2018-05-10T16:33:24.416Z,4.70
2018-05-10T16:37:17.727Z,4.37
2018-05-10T16:41:11.601Z,4.93
2018-05-10T16:45:05.499Z,4.43
2018-05-10T16:48:58.619Z,5.73
2018-05-10T16:52:51.788Z,7.20
2018-05-10T16:56:44.888Z,9.80
2018-05-10T17:00:38.383Z,6.40
2018-05-10T17:04:32.470Z,7.87
2018-05-10T17:08:25.598Z,10.27
2018-05-10T17:12:18.735Z,9.57
2018-05-10T17:16:11.972Z,8.90
2018-05-10T17:20:05.090Z,10.17
2018-05-10T17:23:59.027Z,8.70
2018-05-10T17:27:52.133Z,10.43
2018-05-10T17:31:45.286Z,7.35
2018-05-10T17:35:38.485Z,7.87
2018-05-10T17:39:32.361Z,5.83
2018-05-10T17:43:26.227Z,8.10
2018-05-10T17:47:20.111Z,5.70
2018-05-10T17:51:13.996Z,6.97
2018-05-10T17:55:07.915Z,5.47
2018-05-10T17:59:01.032Z,5.70
2018-05-10T18:02:55.213Z,4.37
2018-05-10T18:06:48.463Z,6.73
2018-05-10T18:10:41.593Z,6.17
2018-05-10T18:14:34.710Z,3.23
2018-05-10T18:18:27.851Z,3.00
2018-05-10T18:22:21.042Z,4.43
2018-05-10T18:26:14.187Z,3.90
2018-05-10T18:30:07.340Z,4.40
2018-05-10T18:34:00.494Z,5.13
2018-05-10T18:37:53.689Z,2.67
2018-05-10T18:41:46.832Z,4.90
2018-05-10T18:45:39.990Z,5.13
2018-05-10T18:49:33.088Z,2.93
2018-05-10T18:53:26.339Z,5.63
2018-05-10T18:57:19.551Z,4.17
2018-05-10T19:01:13.438Z,4.33
2018-05-10T19:05:06.554Z,6.53
2018-05-10T19:09:00.027Z,4.47
2018-05-10T19:12:53.134Z,5.13
2018-05-10T19:16:47.111Z,2.58
2018-05-10T19:20:41.100Z,4.53
2018-05-10T19:24:34.973Z,3.23
2018-05-10T19:28:28.174Z,3.73
2018-05-10T19:32:21.303Z,1.93
2018-05-10T19:36:14.440Z,5.03
2018-05-10T19:40:07.562Z,2.60
2018-05-10T19:44:00.854Z,7.87
2018-05-10T19:47:53.985Z,2.63
2018-05-10T19:51:47.115Z,2.00
2018-05-10T19:55:41.086Z,2.08
2018-05-10T19:59:34.192Z,3.03
2018-05-10T20:03:27.373Z,3.53
2018-05-10T20:07:20.579Z,4.93
2018-05-10T20:11:13.644Z,2.30
2018-05-10T20:15:06.855Z,2.97
2018-05-10T20:18:59.957Z,4.00
2018-05-10T20:22:53.100Z,5.17
2018-05-10T20:26:46.328Z,4.80
2018-05-10T20:30:39.435Z,4.83
2018-05-10T20:34:32.691Z,5.17
2018-05-10T20:38:25.795Z,4.77
2018-05-10T20:42:18.884Z,3.67
2018-05-10T20:46:12.078Z,2.60
2018-05-10T20:50:05.252Z,5.80
2018-05-10T20:53:58.360Z,3.00
2018-05-10T20:57:51.462Z,4.17
2018-05-10T21:01:46.418Z,5.13
2018-05-10T21:05:39.613Z,3.83
2018-05-10T21:09:32.881Z,5.20
2018-05-10T21:13:26.054Z,6.90
2018-05-10T21:17:19.308Z,4.85
2018-05-10T21:21:12.424Z,3.90
2018-05-10T21:25:05.540Z,6.70
2018-05-10T21:28:59.392Z,6.57
2018-05-10T21:32:52.515Z,5.18
2018-05-10T21:36:46.694Z,6.97
2018-05-10T21:40:40.567Z,7.10
2018-05-10T21:44:33.681Z,4.53
2018-05-10T21:48:26.853Z,4.10
2018-05-10T21:52:20.013Z,4.47
2018-05-10T21:56:13.152Z,5.87
2018-05-10T22:00:06.362Z,4.13
2018-05-10T22:03:59.491Z,4.60
2018-05-10T22:07:52.620Z,5.17
2018-05-10T22:11:47.114Z,5.03
2018-05-10T22:15:42.638Z,5.43
2018-05-10T22:19:35.867Z,4.00
2018-05-10T22:23:29.068Z,5.83
2018-05-10T22:27:22.337Z,8.17
2018-05-10T22:31:16.270Z,5.10
2018-05-10T22:35:09.415Z,6.20
2018-05-10T22:39:02.541Z,7.53
2018-05-10T22:42:56.427Z,7.87
2018-05-10T22:46:49.790Z,9.38
2018-05-10T22:50:43.232Z,7.63
2018-05-10T22:54:36.492Z,8.55
2018-05-10T22:58:30.411Z,7.57
2018-05-10T23:02:23.609Z,6.33
2018-05-10T23:06:18.160Z,6.63
2018-05-10T23:10:11.182Z,8.23
2018-05-10T23:14:04.328Z,9.20
2018-05-10T23:17:57.447Z,5.03
2018-05-10T23:21:50.595Z,4.67
2018-05-10T23:25:43.734Z,6.43
2018-05-10T23:29:36.907Z,6.37
2018-05-10T23:33:29.984Z,9.87
2018-05-10T23:37:23.119Z,7.63
2018-05-10T23:41:16.244Z,5.10
2018-05-10T23:45:09.347Z,9.45
2018-05-10T23:49:02.445Z,6.30
2018-05-10T23:52:55.535Z,5.97
2018-05-10T23:56:48.723Z,7.20
